sensor_id;sensor_type;location;lat;lon;timestamp;temperature;humidity
18888;DHT22;9576;47.792;9.628;2023-04-03T00:02:04;4.80;99.90
18888;DHT22;9576;47.792;9.628;2023-04-03T00:05:07;4.60;99.90
18888;DHT22;9576;47.792;9.628;2023-04-03T00:08:10;4.50;99.90
18888;DHT22;9576;47.792;9.628;2023-04-03T00:11:12;4.50;99.90
18888;DHT22;9576;47.792;9.628;2023-04-03T00:14:14;4.40;99.90
18888;DHT22;9576;47.792;9.628;2023-04-03T00:17:16;4.40;99.90
18888;DHT22;9576;47.792;9.628;2023-04-03T00:20:18;4.40;99.90
18888;DHT22;9576;47.792;9.628;2023-04-03T00:23:21;4.40;99.90
18888;DHT22;9576;47.792;9.628;2023-04-03T00:26:24;4.30;99.90
18888;DHT22;9576;47.792;9.628;2023-04-03T00:29:26;4.30;99.90
18888;DHT22;9576;47.792;9.628;2023-04-03T00:32:27;4.20;99.90
18888;DHT22;9576;47.792;9.628;2023-04-03T00:35:30;4.20;99.90
18888;DHT22;9576;47.792;9.628;2023-04-03T00:38:33;4.20;99.90
18888;DHT22;9576;47.792;9.628;2023-04-03T00:41:35;4.10;99.90
18888;DHT22;9576;47.792;9.628;2023-04-03T00:48:20;4.00;99.90
18888;DHT22;9576;47.792;9.628;2023-04-03T00:51:24;3.90;99.90
18888;DHT22;9576;47.792;9.628;2023-04-03T00:54:28;3.90;99.90
18888;DHT22;9576;47.792;9.628;2023-04-03T00:57:30;3.90;99.90
18888;DHT22;9576;47.792;9.628;2023-04-03T01:00:33;3.80;99.90
18888;DHT22;9576;47.792;9.628;2023-04-03T01:03:35;3.80;99.90
18888;DHT22;9576;47.792;9.628;2023-04-03T01:06:37;3.80;99.90
18888;DHT22;9576;47.792;9.628;2023-04-03T01:09:41;3.80;99.90
18888;DHT22;9576;47.792;9.628;2023-04-03T01:12:45;3.70;99.90
18888;DHT22;9576;47.792;9.628;2023-04-03T01:15:48;3.70;99.90
18888;DHT22;9576;47.792;9.628;2023-04-03T01:18:50;3.60;99.90
18888;DHT22;9576;47.792;9.628;2023-04-03T01:22:07;3.60;99.90
18888;DHT22;9576;47.792;9.628;2023-04-03T01:25:14;3.60;99.90
18888;DHT22;9576;47.792;9.628;2023-04-03T01:28:18;3.50;99.90
18888;DHT22;9576;47.792;9.628;2023-04-03T01:31:25;3.50;99.90
18888;DHT22;9576;47.792;9.628;2023-04-03T01:34:30;3.40;99.90
18888;DHT22;9576;47.792;9.628;2023-04-03T01:37:32;3.40;99.90
18888;DHT22;9576;47.792;9.628;2023-04-03T01:40:34;3.30;99.90
18888;DHT22;9576;47.792;9.628;2023-04-03T01:43:36;3.30;99.90
18888;DHT22;9576;47.792;9.628;2023-04-03T01:46:38;3.10;99.90
18888;DHT22;9576;47.792;9.628;2023-04-03T01:49:41;3.10;99.90
18888;DHT22;9576;47.792;9.628;2023-04-03T01:52:43;2.90;99.90
18888;DHT22;9576;47.792;9.628;2023-04-03T01:55:45;2.90;99.90
18888;DHT22;9576;47.792;9.628;2023-04-03T01:58:47;2.90;99.90
18888;DHT22;9576;47.792;9.628;2023-04-03T02:01:50;2.80;99.90
18888;DHT22;9576;47.792;9.628;2023-04-03T02:04:53;2.80;99.90
18888;DHT22;9576;47.792;9.628;2023-04-03T02:07:55;2.80;99.90
18888;DHT22;9576;47.792;9.628;2023-04-03T02:10:57;2.80;99.90
18888;DHT22;9576;47.792;9.628;2023-04-03T02:13:59;2.80;99.90
18888;DHT22;9576;47.792;9.628;2023-04-03T02:17:01;2.80;99.90
18888;DHT22;9576;47.792;9.628;2023-04-03T02:20:07;2.90;99.90
18888;DHT22;9576;47.792;9.628;2023-04-03T02:23:09;2.90;99.90
18888;DHT22;9576;47.792;9.628;2023-04-03T02:26:13;3.00;99.90
18888;DHT22;9576;47.792;9.628;2023-04-03T02:29:15;3.00;99.90
18888;DHT22;9576;47.792;9.628;2023-04-03T02:32:17;3.00;99.90
18888;DHT22;9576;47.792;9.628;2023-04-03T02:35:21;3.00;99.90
18888;DHT22;9576;47.792;9.628;2023-04-03T02:38:23;3.00;99.90
18888;DHT22;9576;47.792;9.628;2023-04-03T02:41:25;3.00;99.90
18888;DHT22;9576;47.792;9.628;2023-04-03T02:44:34;3.10;99.90
18888;DHT22;9576;47.792;9.628;2023-04-03T02:47:36;3.00;99.90
18888;DHT22;9576;47.792;9.628;2023-04-03T02:50:39;3.00;99.90
18888;DHT22;9576;47.792;9.628;2023-04-03T02:53:41;3.10;99.90
18888;DHT22;9576;47.792;9.628;2023-04-03T02:56:43;3.10;99.90
18888;DHT22;9576;47.792;9.628;2023-04-03T02:59:45;3.00;99.90
18888;DHT22;9576;47.792;9.628;2023-04-03T03:02:48;3.00;99.90
18888;DHT22;9576;47.792;9.628;2023-04-03T03:06:01;2.90;99.90
18888;DHT22;9576;47.792;9.628;2023-04-03T03:09:03;2.90;99.90
18888;DHT22;9576;47.792;9.628;2023-04-03T03:12:06;2.90;99.90
18888;DHT22;9576;47.792;9.628;2023-04-03T03:15:08;3.00;99.90
18888;DHT22;9576;47.792;9.628;2023-04-03T03:18:10;3.00;99.90
18888;DHT22;9576;47.792;9.628;2023-04-03T03:21:13;2.90;99.90
18888;DHT22;9576;47.792;9.628;2023-04-03T03:24:15;3.00;99.90
18888;DHT22;9576;47.792;9.628;2023-04-03T03:27:17;3.00;99.90
18888;DHT22;9576;47.792;9.628;2023-04-03T03:30:19;3.00;99.90
18888;DHT22;9576;47.792;9.628;2023-04-03T03:33:21;3.00;99.90
18888;DHT22;9576;47.792;9.628;2023-04-03T03:36:25;2.90;99.90
18888;DHT22;9576;47.792;9.628;2023-04-03T03:39:27;2.90;99.90
18888;DHT22;9576;47.792;9.628;2023-04-03T03:42:29;2.90;99.90
18888;DHT22;9576;47.792;9.628;2023-04-03T03:45:32;2.80;99.90
18888;DHT22;9576;47.792;9.628;2023-04-03T03:48:33;2.80;99.90
18888;DHT22;9576;47.792;9.628;2023-04-03T03:51:37;2.90;99.90
18888;DHT22;9576;47.792;9.628;2023-04-03T03:54:39;2.80;99.90
18888;DHT22;9576;47.792;9.628;2023-04-03T03:57:41;2.80;99.90
18888;DHT22;9576;47.792;9.628;2023-04-03T04:00:42;2.80;99.90
18888;DHT22;9576;47.792;9.628;2023-04-03T04:03:44;2.70;99.90
18888;DHT22;9576;47.792;9.628;2023-04-03T04:06:48;2.70;99.90
18888;DHT22;9576;47.792;9.628;2023-04-03T04:09:50;2.70;99.90
18888;DHT22;9576;47.792;9.628;2023-04-03T04:12:51;2.70;99.90
18888;DHT22;9576;47.792;9.628;2023-04-03T04:15:53;2.70;99.90
18888;DHT22;9576;47.792;9.628;2023-04-03T04:18:55;2.70;99.90
18888;DHT22;9576;47.792;9.628;2023-04-03T04:21:59;2.70;99.90
18888;DHT22;9576;47.792;9.628;2023-04-03T04:25:01;2.70;99.90
18888;DHT22;9576;47.792;9.628;2023-04-03T04:28:03;2.80;99.90
18888;DHT22;9576;47.792;9.628;2023-04-03T04:31:05;2.80;99.90
18888;DHT22;9576;47.792;9.628;2023-04-03T04:34:07;2.80;99.90
18888;DHT22;9576;47.792;9.628;2023-04-03T04:37:10;2.80;99.90
18888;DHT22;9576;47.792;9.628;2023-04-03T04:40:12;2.90;99.90
18888;DHT22;9576;47.792;9.628;2023-04-03T04:43:15;2.90;99.90
18888;DHT22;9576;47.792;9.628;2023-04-03T04:46:17;2.90;99.90
18888;DHT22;9576;47.792;9.628;2023-04-03T04:49:19;2.80;99.90
18888;DHT22;9576;47.792;9.628;2023-04-03T04:52:22;2.80;99.90
18888;DHT22;9576;47.792;9.628;2023-04-03T04:55:24;2.90;99.90
18888;DHT22;9576;47.792;9.628;2023-04-03T04:58:26;2.90;99.90
18888;DHT22;9576;47.792;9.628;2023-04-03T05:01:28;3.00;99.90
18888;DHT22;9576;47.792;9.628;2023-04-03T05:04:31;2.90;99.90
18888;DHT22;9576;47.792;9.628;2023-04-03T05:07:35;3.00;99.90
18888;DHT22;9576;47.792;9.628;2023-04-03T05:10:37;2.90;99.90
18888;DHT22;9576;47.792;9.628;2023-04-03T05:13:41;2.80;99.90
18888;DHT22;9576;47.792;9.628;2023-04-03T05:16:43;2.80;99.90
18888;DHT22;9576;47.792;9.628;2023-04-03T05:19:45;2.80;99.90
18888;DHT22;9576;47.792;9.628;2023-04-03T05:22:48;2.80;99.90
18888;DHT22;9576;47.792;9.628;2023-04-03T05:25:50;2.80;99.90
18888;DHT22;9576;47.792;9.628;2023-04-03T05:28:52;2.80;99.90
18888;DHT22;9576;47.792;9.628;2023-04-03T05:31:54;2.80;99.90
18888;DHT22;9576;47.792;9.628;2023-04-03T05:34:56;2.80;99.90
18888;DHT22;9576;47.792;9.628;2023-04-03T05:37:59;2.90;99.90
18888;DHT22;9576;47.792;9.628;2023-04-03T05:41:01;3.00;99.90
18888;DHT22;9576;47.792;9.628;2023-04-03T05:44:03;2.90;99.90
18888;DHT22;9576;47.792;9.628;2023-04-03T05:47:05;3.00;99.90
18888;DHT22;9576;47.792;9.628;2023-04-03T05:50:07;3.00;99.90
18888;DHT22;9576;47.792;9.628;2023-04-03T05:53:15;3.10;99.90
18888;DHT22;9576;47.792;9.628;2023-04-03T05:56:19;3.00;99.90
18888;DHT22;9576;47.792;9.628;2023-04-03T05:59:21;3.00;99.90
18888;DHT22;9576;47.792;9.628;2023-04-03T06:02:24;3.00;99.90
18888;DHT22;9576;47.792;9.628;2023-04-03T06:05:26;3.10;99.90
18888;DHT22;9576;47.792;9.628;2023-04-03T06:08:29;3.10;99.90
18888;DHT22;9576;47.792;9.628;2023-04-03T06:11:31;3.20;99.90
18888;DHT22;9576;47.792;9.628;2023-04-03T06:14:33;3.20;99.90
18888;DHT22;9576;47.792;9.628;2023-04-03T06:17:35;3.20;99.90
18888;DHT22;9576;47.792;9.628;2023-04-03T06:20:37;3.20;99.90
18888;DHT22;9576;47.792;9.628;2023-04-03T06:23:41;3.30;99.90
18888;DHT22;9576;47.792;9.628;2023-04-03T06:26:43;3.30;99.90
18888;DHT22;9576;47.792;9.628;2023-04-03T06:29:46;3.30;99.90
18888;DHT22;9576;47.792;9.628;2023-04-03T06:32:49;3.30;99.90
18888;DHT22;9576;47.792;9.628;2023-04-03T06:35:56;3.30;99.90
18888;DHT22;9576;47.792;9.628;2023-04-03T06:38:59;3.30;99.90
18888;DHT22;9576;47.792;9.628;2023-04-03T06:42:02;3.40;99.90
18888;DHT22;9576;47.792;9.628;2023-04-03T06:45:05;3.40;99.90
18888;DHT22;9576;47.792;9.628;2023-04-03T06:48:08;3.40;99.90
18888;DHT22;9576;47.792;9.628;2023-04-03T06:51:17;3.50;99.90
18888;DHT22;9576;47.792;9.628;2023-04-03T06:54:22;3.60;99.90
18888;DHT22;9576;47.792;9.628;2023-04-03T06:57:24;3.60;99.90
18888;DHT22;9576;47.792;9.628;2023-04-03T07:00:26;3.70;99.90
18888;DHT22;9576;47.792;9.628;2023-04-03T07:03:28;3.80;99.90
18888;DHT22;9576;47.792;9.628;2023-04-03T07:06:30;3.80;99.90
18888;DHT22;9576;47.792;9.628;2023-04-03T07:09:34;3.70;99.90
18888;DHT22;9576;47.792;9.628;2023-04-03T07:12:36;3.80;99.90
18888;DHT22;9576;47.792;9.628;2023-04-03T07:15:39;3.80;99.90
18888;DHT22;9576;47.792;9.628;2023-04-03T07:18:41;3.70;99.90
18888;DHT22;9576;47.792;9.628;2023-04-03T07:21:43;3.80;99.90
18888;DHT22;9576;47.792;9.628;2023-04-03T07:24:46;3.90;99.90
18888;DHT22;9576;47.792;9.628;2023-04-03T07:27:48;4.00;99.90
18888;DHT22;9576;47.792;9.628;2023-04-03T07:30:52;4.00;99.90
18888;DHT22;9576;47.792;9.628;2023-04-03T07:33:54;4.10;99.90
18888;DHT22;9576;47.792;9.628;2023-04-03T07:36:56;4.20;99.90
18888;DHT22;9576;47.792;9.628;2023-04-03T07:39:59;4.20;99.90
18888;DHT22;9576;47.792;9.628;2023-04-03T07:43:04;4.30;99.90
18888;DHT22;9576;47.792;9.628;2023-04-03T07:46:06;4.40;99.90
18888;DHT22;9576;47.792;9.628;2023-04-03T07:49:08;4.50;99.90
18888;DHT22;9576;47.792;9.628;2023-04-03T07:52:10;4.50;99.90
18888;DHT22;9576;47.792;9.628;2023-04-03T07:55:14;4.50;99.90
18888;DHT22;9576;47.792;9.628;2023-04-03T07:58:17;4.50;99.90
18888;DHT22;9576;47.792;9.628;2023-04-03T08:01:19;4.70;99.90
18888;DHT22;9576;47.792;9.628;2023-04-03T08:04:21;4.90;99.90
18888;DHT22;9576;47.792;9.628;2023-04-03T08:07:23;4.90;99.90
18888;DHT22;9576;47.792;9.628;2023-04-03T08:10:27;4.90;99.90
18888;DHT22;9576;47.792;9.628;2023-04-03T08:13:31;5.00;99.90
18888;DHT22;9576;47.792;9.628;2023-04-03T08:16:33;5.20;99.90
18888;DHT22;9576;47.792;9.628;2023-04-03T08:19:35;5.20;99.90
18888;DHT22;9576;47.792;9.628;2023-04-03T08:22:37;5.20;99.90
18888;DHT22;9576;47.792;9.628;2023-04-03T08:25:40;5.20;99.90
18888;DHT22;9576;47.792;9.628;2023-04-03T08:28:42;5.30;99.90
18888;DHT22;9576;47.792;9.628;2023-04-03T08:31:44;5.40;99.90
18888;DHT22;9576;47.792;9.628;2023-04-03T08:34:46;5.60;99.90
18888;DHT22;9576;47.792;9.628;2023-04-03T08:37:48;5.60;99.90
18888;DHT22;9576;47.792;9.628;2023-04-03T08:41:04;5.60;99.90
18888;DHT22;9576;47.792;9.628;2023-04-03T08:44:24;5.50;99.90
18888;DHT22;9576;47.792;9.628;2023-04-03T08:47:31;5.60;99.90
18888;DHT22;9576;47.792;9.628;2023-04-03T08:50:40;5.70;99.90
18888;DHT22;9576;47.792;9.628;2023-04-03T08:53:46;5.70;99.90
18888;DHT22;9576;47.792;9.628;2023-04-03T08:56:55;5.50;99.90
18888;DHT22;9576;47.792;9.628;2023-04-03T08:59:59;5.40;99.90
18888;DHT22;9576;47.792;9.628;2023-04-03T09:03:03;5.40;99.90
18888;DHT22;9576;47.792;9.628;2023-04-03T09:06:08;5.40;99.90
18888;DHT22;9576;47.792;9.628;2023-04-03T09:09:19;5.60;99.90
18888;DHT22;9576;47.792;9.628;2023-04-03T09:12:33;5.70;99.90
18888;DHT22;9576;47.792;9.628;2023-04-03T09:15:38;5.90;99.90
18888;DHT22;9576;47.792;9.628;2023-04-03T09:18:45;6.00;99.90
18888;DHT22;9576;47.792;9.628;2023-04-03T09:21:56;6.00;99.90
18888;DHT22;9576;47.792;9.628;2023-04-03T09:25:11;5.90;99.90
18888;DHT22;9576;47.792;9.628;2023-04-03T09:28:16;5.80;99.90
18888;DHT22;9576;47.792;9.628;2023-04-03T09:31:21;5.50;99.90
18888;DHT22;9576;47.792;9.628;2023-04-03T09:34:27;5.40;99.90
18888;DHT22;9576;47.792;9.628;2023-04-03T09:37:39;5.40;99.90
18888;DHT22;9576;47.792;9.628;2023-04-03T09:40:43;5.40;99.90
18888;DHT22;9576;47.792;9.628;2023-04-03T09:43:54;5.60;99.90
18888;DHT22;9576;47.792;9.628;2023-04-03T09:46:56;5.70;99.90
18888;DHT22;9576;47.792;9.628;2023-04-03T09:50:19;5.80;99.90
18888;DHT22;9576;47.792;9.628;2023-04-03T09:53:27;5.80;99.90
18888;DHT22;9576;47.792;9.628;2023-04-03T09:56:30;6.10;99.90
18888;DHT22;9576;47.792;9.628;2023-04-03T09:59:34;6.10;99.90
18888;DHT22;9576;47.792;9.628;2023-04-03T10:02:38;6.20;99.90
18888;DHT22;9576;47.792;9.628;2023-04-03T10:05:41;6.10;99.90
18888;DHT22;9576;47.792;9.628;2023-04-03T10:08:43;6.30;99.90
18888;DHT22;9576;47.792;9.628;2023-04-03T10:12:02;6.60;99.90
18888;DHT22;9576;47.792;9.628;2023-04-03T10:15:13;7.00;99.90
18888;DHT22;9576;47.792;9.628;2023-04-03T10:18:29;7.10;99.90
18888;DHT22;9576;47.792;9.628;2023-04-03T10:21:39;7.20;99.90
18888;DHT22;9576;47.792;9.628;2023-04-03T10:24:50;7.50;99.90
18888;DHT22;9576;47.792;9.628;2023-04-03T10:27:55;7.70;99.90
18888;DHT22;9576;47.792;9.628;2023-04-03T10:31:08;7.90;99.90
18888;DHT22;9576;47.792;9.628;2023-04-03T10:34:21;7.70;99.90
18888;DHT22;9576;47.792;9.628;2023-04-03T10:37:26;7.60;99.90
18888;DHT22;9576;47.792;9.628;2023-04-03T10:40:33;7.70;99.90
18888;DHT22;9576;47.792;9.628;2023-04-03T10:43:41;7.70;99.90
18888;DHT22;9576;47.792;9.628;2023-04-03T10:46:48;7.60;99.90
18888;DHT22;9576;47.792;9.628;2023-04-03T10:49:58;7.40;99.90
18888;DHT22;9576;47.792;9.628;2023-04-03T10:53:06;7.30;99.90
18888;DHT22;9576;47.792;9.628;2023-04-03T10:56:16;7.20;99.90
18888;DHT22;9576;47.792;9.628;2023-04-03T10:59:24;7.30;99.90
18888;DHT22;9576;47.792;9.628;2023-04-03T11:02:31;7.50;99.90
18888;DHT22;9576;47.792;9.628;2023-04-03T11:05:39;7.90;99.90
18888;DHT22;9576;47.792;9.628;2023-04-03T11:08:45;8.50;99.90
18888;DHT22;9576;47.792;9.628;2023-04-03T11:11:53;9.00;99.90
18888;DHT22;9576;47.792;9.628;2023-04-03T11:14:56;8.90;99.90
18888;DHT22;9576;47.792;9.628;2023-04-03T11:18:02;8.40;99.90
18888;DHT22;9576;47.792;9.628;2023-04-03T11:21:12;8.10;99.90
18888;DHT22;9576;47.792;9.628;2023-04-03T11:24:20;8.00;99.90
18888;DHT22;9576;47.792;9.628;2023-04-03T11:27:23;7.80;99.90
18888;DHT22;9576;47.792;9.628;2023-04-03T11:30:31;7.80;99.90
18888;DHT22;9576;47.792;9.628;2023-04-03T11:33:43;7.60;99.90
18888;DHT22;9576;47.792;9.628;2023-04-03T11:36:48;7.50;99.90
18888;DHT22;9576;47.792;9.628;2023-04-03T11:39:56;7.60;99.90
18888;DHT22;9576;47.792;9.628;2023-04-03T11:43:05;7.50;99.90
18888;DHT22;9576;47.792;9.628;2023-04-03T11:46:09;7.40;99.90
18888;DHT22;9576;47.792;9.628;2023-04-03T11:49:51;7.30;99.90
18888;DHT22;9576;47.792;9.628;2023-04-03T11:53:00;7.50;99.90
18888;DHT22;9576;47.792;9.628;2023-04-03T11:56:27;7.60;99.90
18888;DHT22;9576;47.792;9.628;2023-04-03T11:59:37;7.30;99.90
18888;DHT22;9576;47.792;9.628;2023-04-03T12:02:39;7.00;99.90
18888;DHT22;9576;47.792;9.628;2023-04-03T12:05:42;6.80;99.90
18888;DHT22;9576;47.792;9.628;2023-04-03T12:08:46;6.70;99.90
18888;DHT22;9576;47.792;9.628;2023-04-03T12:11:48;6.80;99.90
18888;DHT22;9576;47.792;9.628;2023-04-03T12:14:51;6.70;99.90
18888;DHT22;9576;47.792;9.628;2023-04-03T12:17:53;6.70;99.90
18888;DHT22;9576;47.792;9.628;2023-04-03T12:20:59;6.90;99.90
18888;DHT22;9576;47.792;9.628;2023-04-03T12:24:04;7.10;99.90
18888;DHT22;9576;47.792;9.628;2023-04-03T12:27:20;7.20;99.90
18888;DHT22;9576;47.792;9.628;2023-04-03T12:30:26;7.20;99.90
18888;DHT22;9576;47.792;9.628;2023-04-03T12:33:38;7.10;99.90
18888;DHT22;9576;47.792;9.628;2023-04-03T12:36:54;7.00;99.90
18888;DHT22;9576;47.792;9.628;2023-04-03T12:40:09;7.20;99.90
18888;DHT22;9576;47.792;9.628;2023-04-03T12:43:41;7.30;99.90
18888;DHT22;9576;47.792;9.628;2023-04-03T12:46:48;7.10;99.90
18888;DHT22;9576;47.792;9.628;2023-04-03T12:49:50;7.00;99.90
18888;DHT22;9576;47.792;9.628;2023-04-03T12:53:00;7.00;99.90
18888;DHT22;9576;47.792;9.628;2023-04-03T12:56:21;7.10;99.90
18888;DHT22;9576;47.792;9.628;2023-04-03T12:59:25;7.10;99.90
18888;DHT22;9576;47.792;9.628;2023-04-03T13:02:28;7.10;99.90
18888;DHT22;9576;47.792;9.628;2023-04-03T13:05:31;7.20;99.90
18888;DHT22;9576;47.792;9.628;2023-04-03T13:08:35;7.20;99.90
18888;DHT22;9576;47.792;9.628;2023-04-03T13:11:39;7.20;99.90
18888;DHT22;9576;47.792;9.628;2023-04-03T13:14:52;7.00;99.90
18888;DHT22;9576;47.792;9.628;2023-04-03T13:17:55;6.80;99.90
18888;DHT22;9576;47.792;9.628;2023-04-03T13:21:01;6.60;99.90
18888;DHT22;9576;47.792;9.628;2023-04-03T13:24:06;6.50;99.90
18888;DHT22;9576;47.792;9.628;2023-04-03T13:27:11;6.60;99.90
18888;DHT22;9576;47.792;9.628;2023-04-03T13:30:21;6.50;99.90
18888;DHT22;9576;47.792;9.628;2023-04-03T13:33:28;6.50;99.90
18888;DHT22;9576;47.792;9.628;2023-04-03T13:36:33;6.50;99.90
18888;DHT22;9576;47.792;9.628;2023-04-03T13:39:38;6.60;99.90
18888;DHT22;9576;47.792;9.628;2023-04-03T13:42:40;6.60;99.90
18888;DHT22;9576;47.792;9.628;2023-04-03T13:45:55;6.70;99.90
18888;DHT22;9576;47.792;9.628;2023-04-03T13:49:19;6.80;99.90
18888;DHT22;9576;47.792;9.628;2023-04-03T13:52:25;6.90;99.90
18888;DHT22;9576;47.792;9.628;2023-04-03T13:55:31;7.00;99.90
18888;DHT22;9576;47.792;9.628;2023-04-03T13:58:34;7.00;99.90
18888;DHT22;9576;47.792;9.628;2023-04-03T14:01:43;7.00;99.90
18888;DHT22;9576;47.792;9.628;2023-04-03T14:04:50;6.80;99.90
18888;DHT22;9576;47.792;9.628;2023-04-03T14:07:54;6.60;99.90
18888;DHT22;9576;47.792;9.628;2023-04-03T14:10:57;6.40;99.90
18888;DHT22;9576;47.792;9.628;2023-04-03T14:14:02;6.40;99.90
18888;DHT22;9576;47.792;9.628;2023-04-03T14:17:14;6.40;99.90
18888;DHT22;9576;47.792;9.628;2023-04-03T14:20:18;6.40;99.90
18888;DHT22;9576;47.792;9.628;2023-04-03T14:23:21;6.30;99.90
18888;DHT22;9576;47.792;9.628;2023-04-03T14:26:24;6.60;99.90
18888;DHT22;9576;47.792;9.628;2023-04-03T14:29:27;6.80;99.90
18888;DHT22;9576;47.792;9.628;2023-04-03T14:32:29;7.10;99.90
18888;DHT22;9576;47.792;9.628;2023-04-03T14:35:31;7.10;99.90
18888;DHT22;9576;47.792;9.628;2023-04-03T14:38:33;7.10;99.90
18888;DHT22;9576;47.792;9.628;2023-04-03T14:41:37;6.90;99.90
18888;DHT22;9576;47.792;9.628;2023-04-03T14:44:39;6.90;99.90
18888;DHT22;9576;47.792;9.628;2023-04-03T14:47:44;7.00;99.90
18888;DHT22;9576;47.792;9.628;2023-04-03T14:50:48;7.10;99.90
18888;DHT22;9576;47.792;9.628;2023-04-03T14:53:51;7.20;99.90
18888;DHT22;9576;47.792;9.628;2023-04-03T14:56:58;7.20;99.90
18888;DHT22;9576;47.792;9.628;2023-04-03T15:00:00;7.40;99.90
18888;DHT22;9576;47.792;9.628;2023-04-03T15:03:04;7.50;99.90
18888;DHT22;9576;47.792;9.628;2023-04-03T15:06:08;7.60;99.90
18888;DHT22;9576;47.792;9.628;2023-04-03T15:09:14;7.40;99.90
18888;DHT22;9576;47.792;9.628;2023-04-03T15:12:21;7.50;99.90
18888;DHT22;9576;47.792;9.628;2023-04-03T15:15:24;7.30;99.90
18888;DHT22;9576;47.792;9.628;2023-04-03T15:18:27;7.10;99.90
18888;DHT22;9576;47.792;9.628;2023-04-03T15:21:32;7.00;99.90
18888;DHT22;9576;47.792;9.628;2023-04-03T15:24:34;6.80;99.90
18888;DHT22;9576;47.792;9.628;2023-04-03T15:27:38;6.80;99.90
18888;DHT22;9576;47.792;9.628;2023-04-03T15:30:40;6.70;99.90
18888;DHT22;9576;47.792;9.628;2023-04-03T15:33:43;6.40;99.90
18888;DHT22;9576;47.792;9.628;2023-04-03T15:36:45;6.40;99.90
18888;DHT22;9576;47.792;9.628;2023-04-03T15:39:47;6.30;99.90
18888;DHT22;9576;47.792;9.628;2023-04-03T15:42:50;6.30;99.90
18888;DHT22;9576;47.792;9.628;2023-04-03T15:45:56;6.30;99.90
18888;DHT22;9576;47.792;9.628;2023-04-03T15:48:59;6.30;99.90
18888;DHT22;9576;47.792;9.628;2023-04-03T15:52:03;6.30;99.90
18888;DHT22;9576;47.792;9.628;2023-04-03T15:55:05;6.30;99.90
18888;DHT22;9576;47.792;9.628;2023-04-03T15:58:09;6.20;99.90
18888;DHT22;9576;47.792;9.628;2023-04-03T16:01:11;6.10;99.90
18888;DHT22;9576;47.792;9.628;2023-04-03T16:04:13;6.20;99.90
18888;DHT22;9576;47.792;9.628;2023-04-03T16:07:16;6.20;99.90
18888;DHT22;9576;47.792;9.628;2023-04-03T16:10:18;6.10;99.90
18888;DHT22;9576;47.792;9.628;2023-04-03T16:13:22;5.90;99.90
18888;DHT22;9576;47.792;9.628;2023-04-03T16:16:24;5.80;99.90
18888;DHT22;9576;47.792;9.628;2023-04-03T16:19:29;5.70;99.90
18888;DHT22;9576;47.792;9.628;2023-04-03T16:22:33;5.70;99.90
18888;DHT22;9576;47.792;9.628;2023-04-03T16:25:35;5.70;99.90
18888;DHT22;9576;47.792;9.628;2023-04-03T16:28:38;5.70;99.90
18888;DHT22;9576;47.792;9.628;2023-04-03T16:31:40;5.70;99.90
18888;DHT22;9576;47.792;9.628;2023-04-03T16:34:42;5.70;99.90
18888;DHT22;9576;47.792;9.628;2023-04-03T16:37:44;5.70;99.90
18888;DHT22;9576;47.792;9.628;2023-04-03T16:40:46;5.80;99.90
18888;DHT22;9576;47.792;9.628;2023-04-03T16:43:50;5.90;99.90
18888;DHT22;9576;47.792;9.628;2023-04-03T16:46:52;5.80;99.90
18888;DHT22;9576;47.792;9.628;2023-04-03T16:49:54;5.80;99.90
18888;DHT22;9576;47.792;9.628;2023-04-03T16:52:56;5.80;99.90
18888;DHT22;9576;47.792;9.628;2023-04-03T16:55:58;5.80;99.90
18888;DHT22;9576;47.792;9.628;2023-04-03T16:59:02;5.80;99.90
18888;DHT22;9576;47.792;9.628;2023-04-03T17:02:03;5.70;99.90
18888;DHT22;9576;47.792;9.628;2023-04-03T17:05:06;5.70;99.90
18888;DHT22;9576;47.792;9.628;2023-04-03T17:08:08;5.70;99.90
18888;DHT22;9576;47.792;9.628;2023-04-03T17:11:10;5.60;99.90
18888;DHT22;9576;47.792;9.628;2023-04-03T17:14:14;5.60;99.90
18888;DHT22;9576;47.792;9.628;2023-04-03T17:17:19;5.60;99.90
18888;DHT22;9576;47.792;9.628;2023-04-03T17:20:22;5.50;99.90
18888;DHT22;9576;47.792;9.628;2023-04-03T17:23:24;5.40;99.90
18888;DHT22;9576;47.792;9.628;2023-04-03T17:26:27;5.40;99.90
18888;DHT22;9576;47.792;9.628;2023-04-03T17:29:30;5.30;99.90
18888;DHT22;9576;47.792;9.628;2023-04-03T17:32:32;5.20;99.90
18888;DHT22;9576;47.792;9.628;2023-04-03T17:35:34;5.10;99.90
18888;DHT22;9576;47.792;9.628;2023-04-03T17:38:36;5.00;99.90
18888;DHT22;9576;47.792;9.628;2023-04-03T17:41:38;5.10;99.90
18888;DHT22;9576;47.792;9.628;2023-04-03T17:44:41;5.00;99.90
18888;DHT22;9576;47.792;9.628;2023-04-03T17:47:43;4.90;99.90
18888;DHT22;9576;47.792;9.628;2023-04-03T17:50:46;4.90;99.90
18888;DHT22;9576;47.792;9.628;2023-04-03T17:53:48;4.80;99.90
18888;DHT22;9576;47.792;9.628;2023-04-03T17:56:50;4.80;99.90
18888;DHT22;9576;47.792;9.628;2023-04-03T17:59:53;4.80;99.90
18888;DHT22;9576;47.792;9.628;2023-04-03T18:02:55;4.80;99.90
18888;DHT22;9576;47.792;9.628;2023-04-03T18:05:57;4.80;99.90
18888;DHT22;9576;47.792;9.628;2023-04-03T18:09:03;4.80;99.90
18888;DHT22;9576;47.792;9.628;2023-04-03T18:12:07;4.70;99.90
18888;DHT22;9576;47.792;9.628;2023-04-03T18:15:11;4.60;99.90
18888;DHT22;9576;47.792;9.628;2023-04-03T18:18:13;4.70;99.90
18888;DHT22;9576;47.792;9.628;2023-04-03T18:21:15;4.60;99.90
18888;DHT22;9576;47.792;9.628;2023-04-03T18:24:18;4.70;99.90
18888;DHT22;9576;47.792;9.628;2023-04-03T18:27:22;4.70;99.90
18888;DHT22;9576;47.792;9.628;2023-04-03T18:30:27;4.70;99.90
18888;DHT22;9576;47.792;9.628;2023-04-03T18:33:29;4.60;99.90
18888;DHT22;9576;47.792;9.628;2023-04-03T18:36:31;4.60;99.90
18888;DHT22;9576;47.792;9.628;2023-04-03T18:39:33;4.60;99.90
18888;DHT22;9576;47.792;9.628;2023-04-03T18:42:35;4.50;99.90
18888;DHT22;9576;47.792;9.628;2023-04-03T18:45:39;4.40;99.90
18888;DHT22;9576;47.792;9.628;2023-04-03T18:48:41;4.40;99.90
18888;DHT22;9576;47.792;9.628;2023-04-03T18:51:43;4.20;99.90
18888;DHT22;9576;47.792;9.628;2023-04-03T18:54:45;4.10;99.90
18888;DHT22;9576;47.792;9.628;2023-04-03T18:57:47;4.10;99.90
18888;DHT22;9576;47.792;9.628;2023-04-03T19:00:51;4.00;99.90
18888;DHT22;9576;47.792;9.628;2023-04-03T19:03:53;4.00;99.90
18888;DHT22;9576;47.792;9.628;2023-04-03T19:06:54;3.90;99.90
18888;DHT22;9576;47.792;9.628;2023-04-03T19:09:56;3.80;99.90
18888;DHT22;9576;47.792;9.628;2023-04-03T19:12:58;3.70;99.90
18888;DHT22;9576;47.792;9.628;2023-04-03T19:16:02;3.60;99.90
18888;DHT22;9576;47.792;9.628;2023-04-03T19:19:04;3.50;99.90
18888;DHT22;9576;47.792;9.628;2023-04-03T19:22:07;3.40;99.90
18888;DHT22;9576;47.792;9.628;2023-04-03T19:25:10;3.40;99.90
18888;DHT22;9576;47.792;9.628;2023-04-03T19:28:12;3.20;99.90
18888;DHT22;9576;47.792;9.628;2023-04-03T19:31:18;3.20;99.90
18888;DHT22;9576;47.792;9.628;2023-04-03T19:34:20;3.20;99.90
18888;DHT22;9576;47.792;9.628;2023-04-03T19:37:22;3.10;99.90
18888;DHT22;9576;47.792;9.628;2023-04-03T19:40:24;3.00;99.90
18888;DHT22;9576;47.792;9.628;2023-04-03T19:43:28;3.00;99.90
18888;DHT22;9576;47.792;9.628;2023-04-03T19:46:32;2.90;99.90
18888;DHT22;9576;47.792;9.628;2023-04-03T19:49:34;2.90;99.90
18888;DHT22;9576;47.792;9.628;2023-04-03T19:52:36;2.90;99.90
18888;DHT22;9576;47.792;9.628;2023-04-03T19:55:37;2.80;99.90
18888;DHT22;9576;47.792;9.628;2023-04-03T19:58:39;2.70;99.90
18888;DHT22;9576;47.792;9.628;2023-04-03T20:01:43;2.70;99.90
18888;DHT22;9576;47.792;9.628;2023-04-03T20:04:45;2.70;99.90
18888;DHT22;9576;47.792;9.628;2023-04-03T20:07:47;2.60;99.90